Time;durP1;ratioP1;P1;durP2;ratioP2;P2;SDS_P1;SDS_P2;PMS_P1;PMS_P2;Temp;Humidity;BMP_temperature;BMP_pressure;BME280_temperature;BME280_humidity;BME280_pressure;Samples;Min_cycle;Max_cycle;Signal;HPM_P1;HPM_P2
2021/12/01 00:00:49;;;;;;;11.88;7.53;;;9.00;99.90;;;;;;5140526;27;20039;-76
2021/12/01 00:03:15;;;;;;;10.45;7.95;;;9.20;99.90;;;;;;5140075;27;20147;-75
2021/12/01 00:05:41;;;;;;;9.75;6.85;;;9.10;99.90;;;;;;5140393;27;20416;-74
2021/12/01 00:08:07;;;;;;;9.73;7.05;;;9.10;99.90;;;;;;5121811;27;20655;-75
2021/12/01 00:10:34;;;;;;;8.85;6.88;;;9.20;99.90;;;;;;5121059;27;20046;-73
2021/12/01 00:13:10;;;;;;;9.73;7.10;;;9.20;99.90;;;;;;5107151;27;20050;-72
2021/12/01 00:15:36;;;;;;;10.18;7.35;;;9.20;99.90;;;;;;5140038;27;20097;-74
2021/12/01 00:18:02;;;;;;;11.40;7.72;;;9.30;99.90;;;;;;5142135;27;20050;-73
2021/12/01 00:20:27;;;;;;;12.77;9.20;;;9.30;99.90;;;;;;5139760;27;20233;-73
2021/12/01 00:22:55;;;;;;;12.50;8.50;;;9.40;99.90;;;;;;5121142;27;20126;-73
2021/12/01 00:25:22;;;;;;;12.95;9.40;;;9.40;99.90;;;;;;5137148;27;20050;-74
2021/12/01 00:27:52;;;;;;;14.30;8.90;;;9.40;99.90;;;;;;5139738;27;20149;-74
2021/12/01 00:30:18;;;;;;;11.32;8.98;;;9.50;99.90;;;;;;5140120;27;20145;-76
2021/12/01 00:32:44;;;;;;;14.82;10.63;;;9.50;99.90;;;;;;5140208;27;20046;-77
2021/12/01 00:35:10;;;;;;;14.77;10.75;;;9.50;99.90;;;;;;5139712;27;20043;-73
2021/12/01 00:37:37;;;;;;;17.50;10.95;;;9.50;99.90;;;;;;5117313;27;20050;-73
2021/12/01 00:40:08;;;;;;;19.55;12.05;;;9.60;99.90;;;;;;5113119;27;20086;-75
2021/12/01 00:42:34;;;;;;;19.92;13.00;;;9.60;99.90;;;;;;5130815;27;20047;-74
2021/12/01 00:45:06;;;;;;;15.45;11.48;;;9.60;99.90;;;;;;5108113;27;20042;-74
2021/12/01 00:47:47;;;;;;;21.00;12.50;;;9.60;99.90;;;;;;5137090;27;20061;-74
2021/12/01 00:50:18;;;;;;;16.50;11.27;;;9.70;99.90;;;;;;5140309;27;20291;-74
2021/12/01 00:52:44;;;;;;;18.45;13.60;;;9.70;99.90;;;;;;5137891;27;20039;-74
2021/12/01 00:55:10;;;;;;;22.25;11.55;;;9.70;99.90;;;;;;5138227;27;20049;-74
2021/12/01 00:57:35;;;;;;;19.52;12.98;;;9.70;99.90;;;;;;5126211;27;20464;-73
2021/12/01 01:00:04;;;;;;;20.13;11.95;;;9.70;99.90;;;;;;5104570;27;20546;-75
2021/12/01 01:02:29;;;;;;;19.05;12.85;;;9.70;99.90;;;;;;5129149;27;20110;-74
2021/12/01 01:04:55;;;;;;;17.08;12.52;;;9.70;99.90;;;;;;5134816;27;20822;-74
2021/12/01 01:07:21;;;;;;;17.15;11.85;;;9.70;99.90;;;;;;5119001;27;20051;-74
2021/12/01 01:09:46;;;;;;;27.08;13.73;;;9.70;99.90;;;;;;5113148;27;20089;-74
2021/12/01 01:17:41;;;;;;;15.98;10.95;;;9.80;99.90;;;;;;5145864;27;20083;-75
2021/12/01 01:20:10;;;;;;;13.35;9.68;;;9.80;99.90;;;;;;5133776;27;20093;-74
2021/12/01 01:22:37;;;;;;;19.15;11.50;;;9.80;99.90;;;;;;5118710;27;20046;-73
2021/12/01 01:25:05;;;;;;;18.80;10.15;;;9.80;99.90;;;;;;5132965;27;20047;-74
2021/12/01 01:27:31;;;;;;;18.15;10.13;;;9.90;99.90;;;;;;5119961;27;20092;-74
2021/12/01 01:29:57;;;;;;;14.13;8.93;;;9.80;99.90;;;;;;5119015;27;20153;-74
2021/12/01 01:32:22;;;;;;;14.48;9.77;;;9.90;99.90;;;;;;5137493;27;20096;-74
2021/12/01 01:34:48;;;;;;;16.40;9.30;;;9.80;99.90;;;;;;5137654;27;20149;-75
2021/12/01 01:37:13;;;;;;;23.40;12.60;;;9.90;99.90;;;;;;5134836;27;20042;-75
2021/12/01 01:39:39;;;;;;;16.30;8.90;;;9.90;99.90;;;;;;5137612;27;20054;-75
2021/12/01 01:42:05;;;;;;;12.60;7.32;;;9.90;99.90;;;;;;5135729;27;20047;-77
2021/12/01 01:44:31;;;;;;;16.83;9.63;;;9.90;99.90;;;;;;5135158;27;20043;-75
2021/12/01 01:46:57;;;;;;;12.82;8.25;;;9.90;99.90;;;;;;5133450;27;20545;-75
2021/12/01 01:49:39;;;;;;;10.23;7.18;;;9.90;99.90;;;;;;5135325;27;20052;-75
2021/12/01 01:52:04;;;;;;;8.10;6.90;;;10.00;99.90;;;;;;5134558;27;20053;-75
2021/12/01 01:54:30;;;;;;;13.70;6.47;;;9.90;99.90;;;;;;5135391;27;20046;-75
2021/12/01 01:56:56;;;;;;;11.88;6.57;;;10.00;99.90;;;;;;5137119;27;20770;-74
2021/12/01 01:59:21;;;;;;;21.27;6.18;;;10.00;99.90;;;;;;5134874;27;20091;-74
2021/12/01 02:01:54;;;;;;;7.82;5.85;;;10.00;99.90;;;;;;5119958;27;20049;-75
2021/12/01 02:04:21;;;;;;;10.73;4.53;;;10.00;99.90;;;;;;5134257;27;20691;-74
2021/12/01 02:06:48;;;;;;;5.35;3.30;;;10.00;99.90;;;;;;5137394;27;20399;-75
2021/12/01 02:09:15;;;;;;;4.60;3.08;;;10.00;99.90;;;;;;5139918;27;20089;-75
2021/12/01 02:11:42;;;;;;;4.47;3.38;;;10.00;99.90;;;;;;5149166;27;20104;-74
2021/12/01 02:14:08;;;;;;;2.85;2.25;;;10.00;99.90;;;;;;5137206;27;20168;-74
2021/12/01 02:16:34;;;;;;;2.35;1.80;;;10.00;99.90;;;;;;5143954;27;20050;-74
2021/12/01 02:18:59;;;;;;;2.08;1.70;;;10.10;99.90;;;;;;5152466;27;20046;-73
2021/12/01 02:21:27;;;;;;;2.40;2.20;;;10.10;99.90;;;;;;5125184;27;20045;-73
2021/12/01 02:23:56;;;;;;;4.43;2.58;;;10.10;99.90;;;;;;5118490;27;20544;-74
2021/12/01 02:26:22;;;;;;;3.50;3.20;;;10.10;99.90;;;;;;5135860;27;20497;-73
2021/12/01 02:28:50;;;;;;;4.28;3.13;;;10.10;99.90;;;;;;5137264;27;20042;-73
2021/12/01 02:31:17;;;;;;;3.38;3.03;;;10.00;99.90;;;;;;5126255;27;20171;-75
2021/12/01 02:33:43;;;;;;;10.75;3.70;;;10.00;99.90;;;;;;5149113;27;20050;-76
2021/12/01 02:36:10;;;;;;;3.28;2.83;;;10.00;99.90;;;;;;5124266;27;20038;-75
2021/12/01 02:38:37;;;;;;;5.72;2.58;;;10.00;99.90;;;;;;5138800;27;20051;-75
2021/12/01 02:41:03;;;;;;;2.55;2.35;;;10.00;99.90;;;;;;5149772;27;20035;-75
2021/12/01 02:43:31;;;;;;;2.95;1.95;;;10.00;99.90;;;;;;5141775;27;20461;-74
2021/12/01 02:45:56;;;;;;;2.40;2.20;;;10.00;99.90;;;;;;5148832;27;20682;-74
2021/12/01 02:48:23;;;;;;;1.73;1.63;;;10.00;99.90;;;;;;5137018;27;20042;-73
2021/12/01 02:50:50;;;;;;;1.00;0.98;;;10.00;99.90;;;;;;5138381;27;20155;-74
2021/12/01 02:53:19;;;;;;;2.28;1.20;;;10.00;99.90;;;;;;5127064;27;20053;-75
2021/12/01 02:56:00;;;;;;;1.52;1.42;;;10.00;99.90;;;;;;5137501;27;20054;-73
2021/12/01 02:58:30;;;;;;;1.60;1.20;;;10.00;99.90;;;;;;5136530;27;20625;-73
2021/12/01 03:00:58;;;;;;;1.33;1.23;;;10.00;99.90;;;;;;5147410;27;20050;-74
2021/12/01 03:03:24;;;;;;;2.13;1.30;;;10.00;99.90;;;;;;5141320;27;20521;-74
2021/12/01 03:05:50;;;;;;;1.73;1.08;;;10.00;99.90;;;;;;5118623;27;20046;-74
2021/12/01 03:08:18;;;;;;;1.17;1.08;;;10.00;99.90;;;;;;5148624;27;20129;-76
2021/12/01 03:10:50;;;;;;;1.73;1.38;;;10.00;99.90;;;;;;5155314;27;20045;-77
2021/12/01 03:13:17;;;;;;;1.52;0.73;;;10.10;99.90;;;;;;5142571;27;20035;-76
2021/12/01 03:15:43;;;;;;;0.68;0.65;;;10.10;99.90;;;;;;5143972;27;20042;-75
2021/12/01 03:18:09;;;;;;;2.25;1.50;;;10.10;99.90;;;;;;5131972;27;20053;-75
2021/12/01 03:20:35;;;;;;;1.58;0.98;;;10.10;99.90;;;;;;5124496;27;20588;-76
2021/12/01 03:23:01;;;;;;;1.55;0.88;;;10.20;99.90;;;;;;5119542;27;20050;-75
2021/12/01 03:25:27;;;;;;;2.65;0.95;;;10.20;99.90;;;;;;5121112;27;20043;-76
2021/12/01 03:27:53;;;;;;;0.88;0.88;;;10.20;99.90;;;;;;5143483;27;20081;-75
2021/12/01 03:30:19;;;;;;;3.22;1.65;;;10.20;99.90;;;;;;5137873;27;20137;-79
2021/12/01 03:32:45;;;;;;;5.85;0.90;;;10.20;99.90;;;;;;5142039;27;20043;-82
2021/12/01 03:35:13;;;;;;;2.25;1.30;;;10.20;99.90;;;;;;5140370;27;20424;-78
2021/12/01 03:37:41;;;;;;;2.53;1.45;;;10.20;99.90;;;;;;5142166;27;20043;-76
2021/12/01 03:40:08;;;;;;;3.40;1.17;;;10.30;99.90;;;;;;5123759;27;20046;-77
2021/12/01 03:42:33;;;;;;;1.00;0.95;;;10.20;99.90;;;;;;5141815;27;20515;-75
2021/12/01 03:44:59;;;;;;;1.42;1.33;;;10.20;99.90;;;;;;5151746;27;20138;-76
2021/12/01 03:47:26;;;;;;;4.85;1.40;;;10.20;99.90;;;;;;5158690;27;20043;-77
2021/12/01 03:49:52;;;;;;;2.90;0.85;;;10.20;99.90;;;;;;5130662;27;20153;-75
2021/12/01 03:52:18;;;;;;;3.67;1.30;;;10.20;99.90;;;;;;5157659;27;20049;-75
2021/12/01 03:54:45;;;;;;;5.82;2.13;;;10.20;99.90;;;;;;5110833;27;20723;-74
2021/12/01 03:57:11;;;;;;;3.72;1.23;;;10.20;99.90;;;;;;5124083;27;20129;-75
2021/12/01 03:59:37;;;;;;;8.05;2.13;;;10.20;99.90;;;;;;5149464;27;20044;-76
2021/12/01 04:02:02;;;;;;;2.25;1.00;;;10.20;99.90;;;;;;5142155;27;20061;-76
2021/12/01 04:04:28;;;;;;;3.70;1.38;;;10.20;99.90;;;;;;5136140;27;20055;-78
2021/12/01 04:06:54;;;;;;;3.85;1.45;;;10.20;99.90;;;;;;5140891;27;21662;-76
2021/12/01 04:09:19;;;;;;;2.78;1.48;;;10.20;99.90;;;;;;5142331;27;20049;-74
2021/12/01 04:11:45;;;;;;;4.13;1.90;;;10.20;99.90;;;;;;5123050;27;20043;-74
2021/12/01 04:14:11;;;;;;;4.13;2.38;;;10.20;99.90;;;;;;5123558;27;20047;-73
2021/12/01 04:16:36;;;;;;;4.95;2.42;;;10.20;99.90;;;;;;5155063;27;20046;-73
2021/12/01 04:19:02;;;;;;;6.25;1.77;;;10.20;99.90;;;;;;5145572;27;20078;-74
2021/12/01 04:21:28;;;;;;;4.45;1.90;;;10.10;99.90;;;;;;5123272;27;20047;-74
2021/12/01 04:23:54;;;;;;;1.95;1.75;;;10.10;99.90;;;;;;5138020;27;20510;-74
2021/12/01 04:26:24;;;;;;;3.20;1.75;;;10.10;99.90;;;;;;5130973;27;20070;-75
2021/12/01 04:28:50;;;;;;;6.60;1.50;;;10.10;99.90;;;;;;5141047;27;20047;-75
2021/12/01 04:31:16;;;;;;;3.40;1.45;;;10.10;99.90;;;;;;5127838;27;20111;-74
2021/12/01 04:33:42;;;;;;;2.88;1.77;;;10.10;99.90;;;;;;5128782;27;20085;-75
2021/12/01 04:36:08;;;;;;;3.35;2.05;;;10.10;99.90;;;;;;5140435;27;20121;-74
2021/12/01 04:38:34;;;;;;;1.20;1.10;;;10.10;99.90;;;;;;5123374;27;20085;-75
2021/12/01 04:41:01;;;;;;;1.92;1.10;;;10.10;99.90;;;;;;5140915;27;20291;-76
2021/12/01 04:43:27;;;;;;;2.72;1.75;;;10.10;99.90;;;;;;5132175;27;20046;-75
2021/12/01 04:45:58;;;;;;;3.65;2.13;;;10.00;99.90;;;;;;5117691;27;20127;-75
2021/12/01 04:48:25;;;;;;;1.33;1.23;;;10.00;99.90;;;;;;5141367;27;20054;-75
2021/12/01 04:50:50;;;;;;;2.22;1.30;;;10.00;99.90;;;;;;5149469;27;20879;-78
2021/12/01 04:53:16;;;;;;;1.70;1.60;;;10.00;99.90;;;;;;5156371;27;20035;-76
2021/12/01 04:55:42;;;;;;;2.60;1.60;;;10.00;99.90;;;;;;5130322;27;20905;-74
2021/12/01 04:58:07;;;;;;;3.45;2.13;;;10.00;99.90;;;;;;5122139;27;20051;-75
2021/12/01 05:00:35;;;;;;;2.60;1.98;;;10.00;99.90;;;;;;5123396;27;20054;-74
2021/12/01 05:03:01;;;;;;;2.22;1.60;;;10.00;99.90;;;;;;5140786;27;20450;-74
2021/12/01 05:05:27;;;;;;;2.78;2.15;;;10.10;99.90;;;;;;5127439;27;20047;-73
2021/12/01 05:07:53;;;;;;;3.05;1.65;;;10.00;99.90;;;;;;5122852;27;20050;-73
2021/12/01 05:10:19;;;;;;;2.22;1.80;;;10.00;99.90;;;;;;5140627;27;20050;-74
2021/12/01 05:12:45;;;;;;;1.27;1.17;;;10.00;99.90;;;;;;5132512;27;20043;-73
2021/12/01 05:15:11;;;;;;;1.30;1.17;;;10.00;99.90;;;;;;5134442;27;20554;-74
2021/12/01 05:17:37;;;;;;;1.08;0.77;;;10.00;99.90;;;;;;5122190;27;20092;-75
2021/12/01 05:20:04;;;;;;;1.58;1.02;;;9.90;99.90;;;;;;5140536;27;20043;-74
2021/12/01 05:22:31;;;;;;;2.95;1.15;;;10.00;99.90;;;;;;5140711;27;20046;-74
2021/12/01 05:24:57;;;;;;;1.73;1.10;;;9.90;99.90;;;;;;5140952;27;20057;-75
2021/12/01 05:27:23;;;;;;;1.83;0.82;;;9.90;99.90;;;;;;5140043;27;20047;-73
2021/12/01 05:29:48;;;;;;;1.15;0.98;;;9.90;99.90;;;;;;5140802;27;20749;-75
2021/12/01 05:32:15;;;;;;;1.58;0.80;;;9.90;99.90;;;;;;5137994;27;20046;-72
2021/12/01 05:34:41;;;;;;;1.15;1.05;;;9.90;99.90;;;;;;5123139;27;20065;-73
2021/12/01 05:37:06;;;;;;;1.33;0.98;;;9.90;99.90;;;;;;5139954;27;20938;-73
2021/12/01 05:39:32;;;;;;;0.90;0.90;;;9.90;99.90;;;;;;5134783;27;20154;-74
2021/12/01 05:41:59;;;;;;;1.65;0.95;;;9.80;99.90;;;;;;5112525;27;20049;-73
2021/12/01 05:44:25;;;;;;;1.10;1.00;;;9.80;99.90;;;;;;5139701;27;20047;-75
2021/12/01 05:46:51;;;;;;;2.40;0.98;;;9.80;99.90;;;;;;5121186;27;20101;-74
2021/12/01 05:49:16;;;;;;;1.15;1.05;;;9.80;99.90;;;;;;5140217;27;20233;-74
2021/12/01 05:51:43;;;;;;;0.90;0.90;;;9.80;99.90;;;;;;5153128;27;20080;-77
2021/12/01 05:54:09;;;;;;;1.75;1.15;;;9.80;99.90;;;;;;5153226;27;20077;-76
2021/12/01 05:56:35;;;;;;;1.23;1.17;;;9.80;99.90;;;;;;5140285;27;20610;-74
2021/12/01 05:59:01;;;;;;;1.92;1.10;;;9.80;99.90;;;;;;5139442;27;20051;-72
2021/12/01 06:01:27;;;;;;;2.15;1.27;;;9.80;99.90;;;;;;5127622;27;20111;-71
2021/12/01 06:03:53;;;;;;;2.22;1.33;;;9.80;99.90;;;;;;5115453;27;20053;-71
2021/12/01 06:06:18;;;;;;;1.45;1.35;;;9.80;99.90;;;;;;5135437;27;20051;-73
2021/12/01 06:08:44;;;;;;;1.40;1.30;;;9.80;99.90;;;;;;5135359;27;20053;-73
2021/12/01 06:11:10;;;;;;;1.35;1.27;;;9.70;99.90;;;;;;5133541;27;20125;-73
2021/12/01 06:13:36;;;;;;;1.33;1.20;;;9.70;99.90;;;;;;5114172;27;20516;-74
2021/12/01 06:16:03;;;;;;;1.98;1.30;;;9.70;99.90;;;;;;5136436;27;20087;-72
2021/12/01 06:18:30;;;;;;;1.65;1.45;;;9.70;99.90;;;;;;5134935;27;20031;-71
2021/12/01 06:20:56;;;;;;;3.25;2.00;;;9.70;99.90;;;;;;5110232;27;20058;-72
2021/12/01 06:23:23;;;;;;;2.10;1.38;;;9.60;99.90;;;;;;5136864;27;20042;-72
2021/12/01 06:25:48;;;;;;;1.75;1.33;;;9.60;99.90;;;;;;5134230;27;20103;-73
2021/12/01 06:28:14;;;;;;;1.88;1.60;;;9.60;99.90;;;;;;5137228;27;20042;-72
2021/12/01 06:30:40;;;;;;;1.48;1.20;;;9.60;99.90;;;;;;5118692;27;20081;-72
2021/12/01 06:33:06;;;;;;;1.83;1.50;;;9.60;99.90;;;;;;5131419;27;20042;-73
2021/12/01 06:35:33;;;;;;;1.10;1.00;;;9.60;99.90;;;;;;5115568;27;20150;-73
2021/12/01 06:38:00;;;;;;;1.73;1.63;;;9.60;99.90;;;;;;5116888;27;20053;-72
2021/12/01 06:40:26;;;;;;;1.75;1.65;;;9.60;99.90;;;;;;5134227;27;20042;-73
2021/12/01 06:42:53;;;;;;;1.52;1.35;;;9.50;99.90;;;;;;5134730;27;20053;-74
2021/12/01 06:45:19;;;;;;;1.30;1.20;;;9.50;99.90;;;;;;5136066;27;20141;-70
2021/12/01 06:47:45;;;;;;;3.35;1.20;;;9.50;99.90;;;;;;5133085;27;20080;-71
2021/12/01 06:50:11;;;;;;;1.27;1.00;;;9.50;99.90;;;;;;5113407;27;20049;-70
2021/12/01 06:52:40;;;;;;;1.60;1.08;;;9.40;99.90;;;;;;5135984;27;20067;-74
2021/12/01 06:55:08;;;;;;;2.15;1.25;;;9.40;99.90;;;;;;5132264;27;20041;-74
2021/12/01 06:57:34;;;;;;;1.25;1.00;;;9.40;99.90;;;;;;5133502;27;20053;-74
2021/12/01 07:00:00;;;;;;;1.52;1.00;;;9.40;99.90;;;;;;5138962;27;20030;-73
2021/12/01 07:02:26;;;;;;;3.92;1.35;;;9.40;99.90;;;;;;5132782;27;20050;-74
2021/12/01 07:04:52;;;;;;;0.77;0.77;;;9.30;99.90;;;;;;5139807;27;20676;-74
2021/12/01 07:07:18;;;;;;;0.70;0.70;;;9.30;99.90;;;;;;5136588;27;20041;-72
2021/12/01 07:09:45;;;;;;;0.95;0.80;;;9.30;99.90;;;;;;5119387;27;20091;-73
2021/12/01 07:12:12;;;;;;;1.00;0.90;;;9.30;99.90;;;;;;5136959;27;20050;-73
2021/12/01 07:14:38;;;;;;;3.25;1.10;;;9.30;99.90;;;;;;5120617;27;20099;-73
2021/12/01 07:17:05;;;;;;;0.75;0.75;;;9.30;99.90;;;;;;5138232;27;20047;-73
2021/12/01 07:19:31;;;;;;;1.15;0.80;;;9.30;99.90;;;;;;5139718;27;20807;-74
2021/12/01 07:21:56;;;;;;;1.02;0.55;;;9.30;99.90;;;;;;5134520;27;20045;-74
2021/12/01 07:24:22;;;;;;;1.17;0.63;;;9.30;99.90;;;;;;5138512;27;20070;-74
2021/12/01 07:26:47;;;;;;;0.80;0.73;;;9.30;99.90;;;;;;5133516;27;20042;-76
2021/12/01 07:29:13;;;;;;;1.50;0.90;;;9.30;99.90;;;;;;5115639;27;20049;-74
2021/12/01 07:31:39;;;;;;;0.60;0.60;;;9.30;99.90;;;;;;5120945;27;20747;-72
2021/12/01 07:34:04;;;;;;;1.25;0.70;;;9.30;99.90;;;;;;5122413;27;20042;-72
2021/12/01 07:36:30;;;;;;;0.68;0.68;;;9.30;99.90;;;;;;5118874;27;20499;-75
2021/12/01 07:38:57;;;;;;;0.93;0.93;;;9.30;99.90;;;;;;5134349;27;20043;-73
2021/12/01 07:41:26;;;;;;;0.90;0.63;;;9.30;99.90;;;;;;5135456;27;20103;-73
2021/12/01 07:43:52;;;;;;;1.80;0.90;;;9.30;99.90;;;;;;5137826;27;20042;-73
2021/12/01 07:46:17;;;;;;;1.20;1.10;;;9.30;99.90;;;;;;5136062;27;20042;-74
2021/12/01 07:48:43;;;;;;;1.83;1.20;;;9.30;99.90;;;;;;5113005;27;20043;-73
2021/12/01 07:51:09;;;;;;;1.83;1.15;;;9.30;99.90;;;;;;5141223;27;20145;-73
2021/12/01 07:53:34;;;;;;;2.03;1.67;;;9.30;99.90;;;;;;5133013;27;20937;-73
2021/12/01 07:56:02;;;;;;;1.95;1.45;;;9.30;99.90;;;;;;5150783;27;20119;-73
2021/12/01 07:58:28;;;;;;;1.83;1.40;;;9.30;99.90;;;;;;5137871;27;20114;-73
2021/12/01 08:00:54;;;;;;;1.74;1.63;;;9.40;99.90;;;;;;4422791;27;10000866;-74
2021/12/01 08:03:20;;;;;;;2.10;1.35;;;9.40;99.90;;;;;;5115078;27;20084;-73
2021/12/01 08:05:45;;;;;;;2.83;1.35;;;9.40;99.90;;;;;;5112345;27;20043;-73
2021/12/01 08:08:11;;;;;;;1.80;1.55;;;9.40;99.90;;;;;;5112036;27;20397;-73
2021/12/01 08:10:37;;;;;;;1.92;1.75;;;9.40;99.90;;;;;;5112012;27;20050;-75
2021/12/01 08:13:04;;;;;;;2.13;1.83;;;9.40;99.90;;;;;;5116561;27;20043;-75
2021/12/01 08:15:30;;;;;;;3.00;1.80;;;9.40;99.90;;;;;;5113061;27;20935;-75
2021/12/01 08:17:56;;;;;;;2.47;2.00;;;9.40;99.90;;;;;;5116024;27;20035;-75
2021/12/01 08:20:21;;;;;;;4.03;2.10;;;9.50;99.90;;;;;;5111478;27;20063;-75
2021/12/01 08:22:47;;;;;;;7.20;3.10;;;9.50;99.90;;;;;;5112660;27;20043;-76
2021/12/01 08:25:14;;;;;;;3.45;2.30;;;9.50;99.90;;;;;;5111350;27;20151;-74
2021/12/01 08:27:39;;;;;;;2.92;2.63;;;9.50;99.90;;;;;;5109681;27;20051;-75
2021/12/01 08:30:07;;;;;;;2.50;2.30;;;9.50;99.90;;;;;;5114817;27;20699;-76
2021/12/01 08:32:32;;;;;;;2.88;2.60;;;9.50;99.90;;;;;;5112805;27;20082;-75
2021/12/01 08:34:58;;;;;;;3.00;2.70;;;9.50;99.90;;;;;;5113685;27;20537;-74
2021/12/01 08:37:24;;;;;;;3.92;2.38;;;9.50;99.90;;;;;;5111347;27;20077;-74
2021/12/01 08:39:50;;;;;;;2.50;2.17;;;9.50;99.90;;;;;;5112061;27;20765;-74
2021/12/01 08:42:21;;;;;;;3.78;2.58;;;9.50;99.90;;;;;;5115075;27;20660;-73
2021/12/01 08:44:51;;;;;;;1.98;1.60;;;9.50;99.90;;;;;;5112607;27;20051;-79
2021/12/01 08:47:20;;;;;;;5.30;1.52;;;9.50;99.90;;;;;;5108924;27;20035;-77
2021/12/01 08:49:46;;;;;;;2.45;1.83;;;9.60;99.90;;;;;;5114098;27;20127;-73
2021/12/01 08:52:12;;;;;;;2.75;1.75;;;9.60;99.90;;;;;;5115014;27;20047;-72
2021/12/01 08:54:38;;;;;;;2.38;1.90;;;9.50;99.90;;;;;;5117093;27;20046;-73
2021/12/01 08:57:04;;;;;;;4.05;1.77;;;9.50;99.90;;;;;;5115228;27;20043;-73
2021/12/01 08:59:32;;;;;;;5.93;1.80;;;9.60;99.90;;;;;;5112500;27;20047;-76
2021/12/01 09:02:00;;;;;;;4.15;2.42;;;9.60;99.90;;;;;;5109356;27;20050;-75
2021/12/01 09:04:26;;;;;;;3.50;2.28;;;9.60;99.90;;;;;;5111872;27;20414;-76
2021/12/01 09:06:52;;;;;;;5.30;1.83;;;9.60;99.90;;;;;;4754791;27;10000561;-77
2021/12/01 09:09:18;;;;;;;3.20;2.00;;;9.60;99.90;;;;;;5111585;27;20051;-76
2021/12/01 09:11:48;;;;;;;2.63;1.63;;;9.60;99.90;;;;;;5111193;27;20054;-76
2021/12/01 09:14:15;;;;;;;3.13;1.75;;;9.60;99.90;;;;;;5112075;27;20142;-75
2021/12/01 09:16:42;;;;;;;3.75;1.40;;;9.60;99.90;;;;;;5113805;27;20095;-75
2021/12/01 09:19:08;;;;;;;5.47;1.98;;;9.60;99.90;;;;;;5117819;27;20070;-75
2021/12/01 09:21:34;;;;;;;6.35;1.48;;;9.60;99.90;;;;;;5107326;27;20186;-76
2021/12/01 09:24:00;;;;;;;3.42;1.52;;;9.70;99.90;;;;;;5105272;27;20523;-75
2021/12/01 09:26:26;;;;;;;2.95;1.58;;;9.70;99.90;;;;;;5112772;27;20047;-73
2021/12/01 09:28:51;;;;;;;2.58;1.38;;;9.60;99.90;;;;;;5114145;27;20066;-74
2021/12/01 09:31:17;;;;;;;4.65;1.40;;;9.70;99.90;;;;;;5114517;27;20051;-74
2021/12/01 09:33:43;;;;;;;10.25;2.28;;;9.60;99.90;;;;;;5113682;27;20047;-74
2021/12/01 09:36:08;;;;;;;2.65;1.20;;;9.60;99.90;;;;;;5112966;27;20103;-75
2021/12/01 09:38:34;;;;;;;5.35;1.70;;;9.60;99.90;;;;;;5116093;27;20031;-76
2021/12/01 09:41:00;;;;;;;3.15;1.70;;;9.60;99.90;;;;;;5116342;27;20098;-77
2021/12/01 09:43:28;;;;;;;2.58;1.17;;;9.50;99.90;;;;;;5110823;27;20081;-76
2021/12/01 09:45:54;;;;;;;3.05;1.63;;;9.50;99.90;;;;;;5113998;27;20702;-74
2021/12/01 09:48:20;;;;;;;2.95;1.00;;;9.40;99.90;;;;;;5116726;27;20043;-75
2021/12/01 09:50:46;;;;;;;4.63;1.17;;;9.40;99.90;;;;;;5111541;27;20051;-76
2021/12/01 09:53:12;;;;;;;2.47;1.17;;;9.40;99.90;;;;;;5117492;27;20047;-74
2021/12/01 09:55:40;;;;;;;5.28;2.17;;;9.40;99.90;;;;;;5116678;27;20043;-75
2021/12/01 09:58:11;;;;;;;3.40;1.63;;;9.40;99.90;;;;;;5112593;27;20648;-77
2021/12/01 10:00:40;;;;;;;4.25;1.00;;;9.40;99.90;;;;;;5115731;27;20122;-74
2021/12/01 10:03:07;;;;;;;9.10;3.22;;;9.30;99.90;;;;;;5120908;27;20050;-75
2021/12/01 10:06:04;;;;;;;3.28;1.27;;;9.40;99.90;;;;;;5136536;27;20061;-74
2021/12/01 10:08:34;;;;;;;5.70;1.60;;;9.40;99.90;;;;;;5134482;27;20046;-75
2021/12/01 10:11:07;;;;;;;3.67;1.48;;;9.40;99.90;;;;;;5113092;27;20058;-76
2021/12/01 10:13:37;;;;;;;2.95;1.65;;;9.40;99.90;;;;;;5135339;27;20053;-76
2021/12/01 10:16:05;;;;;;;6.43;2.67;;;9.40;99.90;;;;;;5117032;27;20054;-75
2021/12/01 10:18:46;;;;;;;4.13;2.20;;;9.40;99.90;;;;;;5135342;27;20524;-75
2021/12/01 10:21:17;;;;;;;6.28;2.22;;;9.40;99.90;;;;;;5136815;27;20150;-74
2021/12/01 10:23:52;;;;;;;3.05;1.42;;;9.40;99.90;;;;;;5118011;27;20082;-75
2021/12/01 10:26:25;;;;;;;2.58;1.70;;;9.40;99.90;;;;;;5136264;27;20065;-75
2021/12/01 10:28:54;;;;;;;4.53;2.05;;;9.50;99.90;;;;;;5136275;27;20046;-76
2021/12/01 10:31:42;;;;;;;3.22;1.67;;;9.50;99.90;;;;;;5136061;27;20035;-76
2021/12/01 10:34:19;;;;;;;6.50;2.00;;;9.50;99.90;;;;;;5134822;27;20043;-76
2021/12/01 10:36:46;;;;;;;6.90;1.75;;;9.50;99.90;;;;;;5112935;27;20053;-75
2021/12/01 10:39:12;;;;;;;17.67;2.22;;;9.50;99.90;;;;;;5135882;27;20201;-75
2021/12/01 10:41:40;;;;;;;5.50;1.35;;;9.50;99.90;;;;;;5135907;27;20628;-75
2021/12/01 10:44:14;;;;;;;5.90;2.30;;;9.50;99.90;;;;;;5115380;27;20050;-74
2021/12/01 10:46:49;;;;;;;5.60;2.35;;;9.50;99.90;;;;;;5132581;27;20121;-74
2021/12/01 10:49:16;;;;;;;7.97;1.98;;;9.50;99.90;;;;;;5112988;27;20068;-76
2021/12/01 10:51:43;;;;;;;3.13;1.35;;;9.50;99.90;;;;;;5127009;27;20054;-77
2021/12/01 10:54:20;;;;;;;5.45;1.48;;;9.50;99.90;;;;;;5146867;27;20178;-76
2021/12/01 10:57:06;;;;;;;6.97;2.35;;;9.50;99.90;;;;;;5134749;27;20111;-75
2021/12/01 10:59:46;;;;;;;7.47;3.30;;;9.50;99.90;;;;;;5104258;27;20054;-71
2021/12/01 11:02:12;;;;;;;6.47;2.05;;;9.40;99.90;;;;;;5127362;27;20058;-71
2021/12/01 11:04:43;;;;;;;5.68;1.77;;;9.30;99.90;;;;;;5138298;27;20145;-71
2021/12/01 11:07:28;;;;;;;3.47;1.60;;;9.30;99.90;;;;;;5136405;27;20861;-74
2021/12/01 11:10:15;;;;;;;6.30;2.00;;;9.20;99.90;;;;;;5136532;27;20050;-74
2021/12/01 11:12:42;;;;;;;8.40;2.33;;;9.20;99.90;;;;;;5127157;27;20493;-74
2021/12/01 11:15:26;;;;;;;3.50;1.10;;;9.20;99.90;;;;;;5119849;27;20073;-72
2021/12/01 11:17:54;;;;;;;3.28;1.75;;;9.10;99.90;;;;;;5138575;27;20935;-73
2021/12/01 11:20:52;;;;;;;9.63;1.80;;;9.10;99.90;;;;;;5117695;27;20485;-75
2021/12/01 11:23:22;;;;;;;3.80;1.70;;;9.20;99.90;;;;;;5137040;27;20107;-74
2021/12/01 11:25:56;;;;;;;8.23;1.35;;;9.20;99.90;;;;;;5119148;27;20133;-75
2021/12/01 11:28:25;;;;;;;6.82;1.73;;;9.20;99.90;;;;;;5119982;27;20517;-73
2021/12/01 11:30:54;;;;;;;7.03;1.75;;;9.30;99.90;;;;;;5137407;27;20740;-75
2021/12/01 11:33:20;;;;;;;3.95;1.30;;;9.30;99.90;;;;;;5139027;27;20038;-75
2021/12/01 11:35:50;;;;;;;6.43;2.95;;;9.40;99.90;;;;;;5134721;27;20130;-75
2021/12/01 11:38:17;;;;;;;4.40;1.30;;;9.40;99.90;;;;;;5139123;27;20042;-75
2021/12/01 11:40:43;;;;;;;5.20;2.58;;;9.40;99.90;;;;;;5135994;27;20058;-73
2021/12/01 11:43:11;;;;;;;4.18;2.05;;;9.40;99.90;;;;;;5138163;27;20047;-76
2021/12/01 11:45:41;;;;;;;16.98;3.58;;;9.30;99.90;;;;;;5124009;27;20591;-75
2021/12/01 11:48:16;;;;;;;7.07;2.65;;;9.40;99.90;;;;;;5139765;27;20046;-77
2021/12/01 11:50:48;;;;;;;4.57;2.53;;;9.40;99.90;;;;;;5148836;27;20054;-77
2021/12/01 11:53:20;;;;;;;12.82;3.33;;;9.50;99.90;;;;;;5143820;27;20039;-79
2021/12/01 11:56:10;;;;;;;4.15;2.35;;;9.40;99.90;;;;;;5138801;27;20135;-75
2021/12/01 11:58:50;;;;;;;12.15;2.75;;;9.50;99.90;;;;;;5125228;27;20545;-79
2021/12/01 12:01:21;;;;;;;11.63;4.43;;;9.30;99.90;;;;;;5125515;27;20061;-78
2021/12/01 12:04:09;;;;;;;8.77;2.50;;;9.30;99.90;;;;;;5132989;27;20062;-80
2021/12/01 12:06:48;;;;;;;9.35;3.03;;;9.20;99.90;;;;;;5122141;27;20050;-78
2021/12/01 12:09:18;;;;;;;13.90;3.22;;;9.10;99.90;;;;;;5141902;27;20529;-78
2021/12/01 12:11:45;;;;;;;8.75;2.70;;;9.00;99.90;;;;;;5140937;27;20046;-76
2021/12/01 12:14:32;;;;;;;9.90;3.47;;;8.90;99.90;;;;;;5140880;27;20050;-74
2021/12/01 12:17:00;;;;;;;19.88;5.00;;;8.80;99.90;;;;;;5125556;27;20047;-77
2021/12/01 12:19:49;;;;;;;11.43;3.03;;;8.90;99.90;;;;;;5132655;27;20047;-79
2021/12/01 12:22:18;;;;;;;15.15;3.83;;;8.70;99.90;;;;;;5138936;27;20050;-79
2021/12/01 12:24:50;;;;;;;8.02;3.65;;;8.70;99.90;;;;;;5129100;27;20054;-77
2021/12/01 12:27:38;;;;;;;8.20;3.40;;;8.70;99.90;;;;;;5119099;27;20414;-79
2021/12/01 12:30:11;;;;;;;8.75;2.90;;;8.70;99.90;;;;;;5120553;27;20050;-80
2021/12/01 12:32:38;;;;;;;7.97;3.15;;;8.70;99.90;;;;;;5138350;27;20143;-75
2021/12/01 12:35:10;;;;;;;6.82;2.92;;;8.70;99.90;;;;;;5128557;27;20043;-80
2021/12/01 12:37:36;;;;;;;9.73;3.75;;;8.70;99.90;;;;;;5123491;27;20062;-76
2021/12/01 12:40:07;;;;;;;6.80;3.22;;;8.70;99.90;;;;;;5140859;27;20043;-78
2021/12/01 12:42:33;;;;;;;8.65;2.95;;;8.60;99.90;;;;;;5120845;27;20058;-80
2021/12/01 12:44:58;;;;;;;19.70;5.00;;;8.70;99.90;;;;;;5140893;27;20035;-76
2021/12/01 12:47:39;;;;;;;9.30;2.58;;;8.70;99.90;;;;;;5128803;27;20046;-76
2021/12/01 12:50:16;;;;;;;9.88;2.83;;;8.70;99.90;;;;;;5128962;27;20464;-80
2021/12/01 12:52:46;;;;;;;8.23;2.30;;;8.70;99.90;;;;;;5161915;27;20050;-80
2021/12/01 12:55:21;;;;;;;7.53;2.08;;;8.80;99.90;;;;;;5127586;27;20039;-74
2021/12/01 12:57:58;;;;;;;5.63;2.10;;;8.80;99.90;;;;;;5134505;27;20091;-74
2021/12/01 13:00:33;;;;;;;5.22;2.20;;;8.80;99.90;;;;;;5118986;27;20133;-76